sensor_id;sensor_type;location;lat;lon;timestamp;P1;durP1;ratioP1;P2;durP2;ratioP2
22064;SDS011;11197;53.110;8.468;2023-11-22T00:00:09;14.20;;;7.43;;
22064;SDS011;11197;53.110;8.468;2023-11-22T00:02:37;11.90;;;7.53;;
22064;SDS011;11197;53.110;8.468;2023-11-22T00:05:03;13.13;;;7.57;;
22064;SDS011;11197;53.110;8.468;2023-11-22T00:07:30;11.43;;;7.47;;
22064;SDS011;11197;53.110;8.468;2023-11-22T00:09:56;11.65;;;7.65;;
22064;SDS011;11197;53.110;8.468;2023-11-22T00:12:23;10.45;;;7.10;;
22064;SDS011;11197;53.110;8.468;2023-11-22T00:14:50;13.05;;;7.90;;
22064;SDS011;11197;53.110;8.468;2023-11-22T00:17:16;14.88;;;7.13;;
22064;SDS011;11197;53.110;8.468;2023-11-22T00:19:45;13.43;;;7.40;;
22064;SDS011;11197;53.110;8.468;2023-11-22T00:22:12;13.13;;;7.45;;
22064;SDS011;11197;53.110;8.468;2023-11-22T00:24:42;10.20;;;6.72;;
22064;SDS011;11197;53.110;8.468;2023-11-22T00:27:10;10.80;;;6.88;;
22064;SDS011;11197;53.110;8.468;2023-11-22T00:29:39;13.07;;;7.50;;
22064;SDS011;11197;53.110;8.468;2023-11-22T00:32:05;11.57;;;7.00;;
22064;SDS011;11197;53.110;8.468;2023-11-22T00:34:32;10.77;;;6.55;;
22064;SDS011;11197;53.110;8.468;2023-11-22T00:36:58;10.93;;;6.75;;
22064;SDS011;11197;53.110;8.468;2023-11-22T00:39:24;12.00;;;7.22;;
22064;SDS011;11197;53.110;8.468;2023-11-22T00:41:49;10.00;;;6.80;;
22064;SDS011;11197;53.110;8.468;2023-11-22T00:44:15;12.23;;;7.35;;
22064;SDS011;11197;53.110;8.468;2023-11-22T00:46:41;12.25;;;7.20;;
22064;SDS011;11197;53.110;8.468;2023-11-22T00:49:07;9.95;;;6.85;;
22064;SDS011;11197;53.110;8.468;2023-11-22T00:51:36;13.23;;;7.20;;
22064;SDS011;11197;53.110;8.468;2023-11-22T00:54:01;11.10;;;6.93;;
22064;SDS011;11197;53.110;8.468;2023-11-22T00:56:28;11.48;;;7.05;;
22064;SDS011;11197;53.110;8.468;2023-11-22T00:58:54;12.07;;;7.60;;
22064;SDS011;11197;53.110;8.468;2023-11-22T01:01:20;10.80;;;6.90;;
22064;SDS011;11197;53.110;8.468;2023-11-22T01:03:46;10.88;;;6.85;;
22064;SDS011;11197;53.110;8.468;2023-11-22T01:06:13;11.23;;;6.68;;
22064;SDS011;11197;53.110;8.468;2023-11-22T01:08:39;11.95;;;6.53;;
22064;SDS011;11197;53.110;8.468;2023-11-22T01:11:05;9.68;;;6.72;;
22064;SDS011;11197;53.110;8.468;2023-11-22T01:13:32;14.77;;;7.05;;
22064;SDS011;11197;53.110;8.468;2023-11-22T01:15:58;11.23;;;7.10;;
22064;SDS011;11197;53.110;8.468;2023-11-22T01:18:24;11.73;;;6.65;;
22064;SDS011;11197;53.110;8.468;2023-11-22T01:20:49;12.68;;;7.22;;
22064;SDS011;11197;53.110;8.468;2023-11-22T01:23:15;11.35;;;7.15;;
22064;SDS011;11197;53.110;8.468;2023-11-22T01:25:41;12.02;;;7.22;;
22064;SDS011;11197;53.110;8.468;2023-11-22T01:28:07;10.15;;;6.40;;
22064;SDS011;11197;53.110;8.468;2023-11-22T01:30:32;10.23;;;6.53;;
22064;SDS011;11197;53.110;8.468;2023-11-22T01:32:58;10.30;;;6.80;;
22064;SDS011;11197;53.110;8.468;2023-11-22T01:35:24;10.18;;;6.60;;
22064;SDS011;11197;53.110;8.468;2023-11-22T01:37:50;12.10;;;6.72;;
22064;SDS011;11197;53.110;8.468;2023-11-22T01:40:17;10.10;;;6.57;;
22064;SDS011;11197;53.110;8.468;2023-11-22T01:42:44;10.15;;;6.63;;
22064;SDS011;11197;53.110;8.468;2023-11-22T01:45:11;11.55;;;6.72;;
22064;SDS011;11197;53.110;8.468;2023-11-22T01:47:37;11.57;;;6.60;;
22064;SDS011;11197;53.110;8.468;2023-11-22T01:50:07;10.38;;;6.25;;
22064;SDS011;11197;53.110;8.468;2023-11-22T01:52:34;12.30;;;6.70;;
22064;SDS011;11197;53.110;8.468;2023-11-22T01:55:00;10.88;;;6.55;;
22064;SDS011;11197;53.110;8.468;2023-11-22T01:57:30;10.23;;;6.57;;
22064;SDS011;11197;53.110;8.468;2023-11-22T02:00:00;11.77;;;6.57;;
22064;SDS011;11197;53.110;8.468;2023-11-22T02:02:38;10.93;;;6.47;;
22064;SDS011;11197;53.110;8.468;2023-11-22T02:05:04;9.82;;;6.32;;
22064;SDS011;11197;53.110;8.468;2023-11-22T02:07:30;9.98;;;6.20;;
22064;SDS011;11197;53.110;8.468;2023-11-22T02:09:57;10.02;;;6.47;;
22064;SDS011;11197;53.110;8.468;2023-11-22T02:12:23;11.05;;;6.65;;
22064;SDS011;11197;53.110;8.468;2023-11-22T02:14:49;10.88;;;6.40;;
22064;SDS011;11197;53.110;8.468;2023-11-22T02:17:15;10.60;;;6.75;;
22064;SDS011;11197;53.110;8.468;2023-11-22T02:19:42;10.68;;;6.60;;
22064;SDS011;11197;53.110;8.468;2023-11-22T02:22:11;11.70;;;6.57;;
22064;SDS011;11197;53.110;8.468;2023-11-22T02:24:37;12.05;;;6.60;;
22064;SDS011;11197;53.110;8.468;2023-11-22T02:27:03;10.20;;;6.07;;
22064;SDS011;11197;53.110;8.468;2023-11-22T02:29:28;11.50;;;6.72;;
22064;SDS011;11197;53.110;8.468;2023-11-22T02:31:54;10.85;;;7.18;;
22064;SDS011;11197;53.110;8.468;2023-11-22T02:34:20;9.75;;;6.50;;
22064;SDS011;11197;53.110;8.468;2023-11-22T02:36:46;10.25;;;6.25;;
22064;SDS011;11197;53.110;8.468;2023-11-22T02:39:12;11.38;;;6.68;;
22064;SDS011;11197;53.110;8.468;2023-11-22T02:41:39;13.63;;;6.72;;
22064;SDS011;11197;53.110;8.468;2023-11-22T02:44:05;10.07;;;6.38;;
22064;SDS011;11197;53.110;8.468;2023-11-22T02:46:33;12.25;;;6.68;;
22064;SDS011;11197;53.110;8.468;2023-11-22T02:48:59;11.60;;;6.75;;
22064;SDS011;11197;53.110;8.468;2023-11-22T02:51:25;11.68;;;6.63;;
22064;SDS011;11197;53.110;8.468;2023-11-22T02:53:51;10.10;;;6.50;;
22064;SDS011;11197;53.110;8.468;2023-11-22T02:56:18;10.52;;;6.72;;
22064;SDS011;11197;53.110;8.468;2023-11-22T02:58:44;11.38;;;6.80;;
22064;SDS011;11197;53.110;8.468;2023-11-22T03:01:11;13.18;;;6.70;;
22064;SDS011;11197;53.110;8.468;2023-11-22T03:03:37;12.15;;;6.30;;
22064;SDS011;11197;53.110;8.468;2023-11-22T03:06:03;10.65;;;6.20;;
22064;SDS011;11197;53.110;8.468;2023-11-22T03:08:29;8.82;;;6.25;;
22064;SDS011;11197;53.110;8.468;2023-11-22T03:10:55;12.30;;;6.75;;
22064;SDS011;11197;53.110;8.468;2023-11-22T03:13:21;12.18;;;6.45;;
22064;SDS011;11197;53.110;8.468;2023-11-22T03:15:48;11.98;;;6.82;;
22064;SDS011;11197;53.110;8.468;2023-11-22T03:18:13;10.80;;;6.68;;
22064;SDS011;11197;53.110;8.468;2023-11-22T03:20:41;9.85;;;6.38;;
22064;SDS011;11197;53.110;8.468;2023-11-22T03:23:08;12.93;;;6.75;;
22064;SDS011;11197;53.110;8.468;2023-11-22T03:25:36;13.52;;;6.90;;
22064;SDS011;11197;53.110;8.468;2023-11-22T03:28:02;11.63;;;7.57;;
22064;SDS011;11197;53.110;8.468;2023-11-22T03:30:28;10.98;;;6.80;;
22064;SDS011;11197;53.110;8.468;2023-11-22T03:32:53;12.23;;;7.45;;
22064;SDS011;11197;53.110;8.468;2023-11-22T03:35:20;13.82;;;7.80;;
22064;SDS011;11197;53.110;8.468;2023-11-22T03:37:46;14.48;;;7.85;;
22064;SDS011;11197;53.110;8.468;2023-11-22T03:40:12;13.50;;;8.15;;
22064;SDS011;11197;53.110;8.468;2023-11-22T03:42:39;13.50;;;7.72;;
22064;SDS011;11197;53.110;8.468;2023-11-22T03:45:06;13.80;;;8.25;;
22064;SDS011;11197;53.110;8.468;2023-11-22T03:47:32;15.75;;;8.38;;
22064;SDS011;11197;53.110;8.468;2023-11-22T03:49:58;13.32;;;7.35;;
22064;SDS011;11197;53.110;8.468;2023-11-22T03:52:24;11.20;;;7.20;;
22064;SDS011;11197;53.110;8.468;2023-11-22T03:54:52;11.07;;;7.03;;
22064;SDS011;11197;53.110;8.468;2023-11-22T03:57:17;9.55;;;6.35;;
22064;SDS011;11197;53.110;8.468;2023-11-22T03:59:43;12.35;;;6.93;;
22064;SDS011;11197;53.110;8.468;2023-11-22T04:02:09;11.38;;;7.25;;
22064;SDS011;11197;53.110;8.468;2023-11-22T04:04:36;10.73;;;6.88;;
22064;SDS011;11197;53.110;8.468;2023-11-22T04:07:04;12.80;;;6.80;;
22064;SDS011;11197;53.110;8.468;2023-11-22T04:09:31;11.13;;;6.78;;
22064;SDS011;11197;53.110;8.468;2023-11-22T04:11:56;12.00;;;6.88;;
22064;SDS011;11197;53.110;8.468;2023-11-22T04:14:23;11.27;;;6.65;;
22064;SDS011;11197;53.110;8.468;2023-11-22T04:16:48;14.52;;;7.43;;
22064;SDS011;11197;53.110;8.468;2023-11-22T04:19:14;12.30;;;7.28;;
22064;SDS011;11197;53.110;8.468;2023-11-22T04:21:40;11.70;;;7.13;;
22064;SDS011;11197;53.110;8.468;2023-11-22T04:24:06;12.30;;;7.15;;
22064;SDS011;11197;53.110;8.468;2023-11-22T04:26:32;11.05;;;7.22;;
22064;SDS011;11197;53.110;8.468;2023-11-22T04:28:57;10.45;;;6.70;;
22064;SDS011;11197;53.110;8.468;2023-11-22T04:31:24;11.15;;;6.88;;
22064;SDS011;11197;53.110;8.468;2023-11-22T04:33:49;11.15;;;7.00;;
22064;SDS011;11197;53.110;8.468;2023-11-22T04:36:16;13.85;;;6.95;;
22064;SDS011;11197;53.110;8.468;2023-11-22T04:38:41;11.60;;;6.63;;
22064;SDS011;11197;53.110;8.468;2023-11-22T04:41:07;9.98;;;6.35;;
22064;SDS011;11197;53.110;8.468;2023-11-22T04:43:33;10.98;;;6.70;;
22064;SDS011;11197;53.110;8.468;2023-11-22T04:45:59;11.20;;;6.85;;
22064;SDS011;11197;53.110;8.468;2023-11-22T04:48:25;12.05;;;6.70;;
22064;SDS011;11197;53.110;8.468;2023-11-22T04:50:51;11.07;;;6.88;;
22064;SDS011;11197;53.110;8.468;2023-11-22T04:53:18;9.95;;;6.50;;
22064;SDS011;11197;53.110;8.468;2023-11-22T04:55:44;11.50;;;6.75;;
22064;SDS011;11197;53.110;8.468;2023-11-22T04:58:10;12.75;;;7.13;;
22064;SDS011;11197;53.110;8.468;2023-11-22T05:00:36;12.15;;;6.70;;
22064;SDS011;11197;53.110;8.468;2023-11-22T05:03:02;13.80;;;8.13;;
22064;SDS011;11197;53.110;8.468;2023-11-22T05:05:27;13.88;;;7.90;;
22064;SDS011;11197;53.110;8.468;2023-11-22T05:07:53;13.88;;;7.55;;
22064;SDS011;11197;53.110;8.468;2023-11-22T05:10:19;12.05;;;7.57;;
22064;SDS011;11197;53.110;8.468;2023-11-22T05:12:45;11.35;;;7.35;;
22064;SDS011;11197;53.110;8.468;2023-11-22T05:15:10;13.10;;;7.25;;
22064;SDS011;11197;53.110;8.468;2023-11-22T05:17:37;11.65;;;7.40;;
22064;SDS011;11197;53.110;8.468;2023-11-22T05:20:03;14.20;;;7.38;;
22064;SDS011;11197;53.110;8.468;2023-11-22T05:22:30;12.35;;;7.22;;
22064;SDS011;11197;53.110;8.468;2023-11-22T05:24:56;12.48;;;7.70;;
22064;SDS011;11197;53.110;8.468;2023-11-22T05:27:21;13.02;;;7.40;;
22064;SDS011;11197;53.110;8.468;2023-11-22T05:29:47;11.68;;;7.03;;
22064;SDS011;11197;53.110;8.468;2023-11-22T05:32:13;12.77;;;7.78;;
22064;SDS011;11197;53.110;8.468;2023-11-22T05:34:38;12.00;;;7.45;;
22064;SDS011;11197;53.110;8.468;2023-11-22T05:37:05;15.73;;;8.13;;
22064;SDS011;11197;53.110;8.468;2023-11-22T05:39:31;11.95;;;7.50;;
22064;SDS011;11197;53.110;8.468;2023-11-22T05:41:57;11.82;;;7.20;;
22064;SDS011;11197;53.110;8.468;2023-11-22T05:44:22;11.85;;;7.07;;
22064;SDS011;11197;53.110;8.468;2023-11-22T05:46:50;13.52;;;7.50;;
22064;SDS011;11197;53.110;8.468;2023-11-22T05:49:16;14.93;;;7.82;;
22064;SDS011;11197;53.110;8.468;2023-11-22T05:51:42;13.27;;;7.78;;
22064;SDS011;11197;53.110;8.468;2023-11-22T05:54:09;13.75;;;7.45;;
22064;SDS011;11197;53.110;8.468;2023-11-22T05:56:36;13.60;;;8.20;;
22064;SDS011;11197;53.110;8.468;2023-11-22T05:59:02;11.65;;;7.10;;
22064;SDS011;11197;53.110;8.468;2023-11-22T06:01:28;12.50;;;7.78;;
22064;SDS011;11197;53.110;8.468;2023-11-22T06:03:55;13.35;;;7.85;;
22064;SDS011;11197;53.110;8.468;2023-11-22T06:06:21;11.60;;;7.35;;
22064;SDS011;11197;53.110;8.468;2023-11-22T06:08:47;12.23;;;7.88;;
22064;SDS011;11197;53.110;8.468;2023-11-22T06:11:13;14.02;;;8.20;;
22064;SDS011;11197;53.110;8.468;2023-11-22T06:13:40;13.00;;;7.30;;
22064;SDS011;11197;53.110;8.468;2023-11-22T06:16:08;13.23;;;8.10;;
22064;SDS011;11197;53.110;8.468;2023-11-22T06:18:34;13.57;;;8.80;;
22064;SDS011;11197;53.110;8.468;2023-11-22T06:23:34;13.65;;;9.10;;
22064;SDS011;11197;53.110;8.468;2023-11-22T06:25:59;14.30;;;9.65;;
22064;SDS011;11197;53.110;8.468;2023-11-22T06:28:25;15.10;;;10.00;;
22064;SDS011;11197;53.110;8.468;2023-11-22T06:30:51;14.50;;;9.38;;
22064;SDS011;11197;53.110;8.468;2023-11-22T06:33:18;14.27;;;9.45;;
22064;SDS011;11197;53.110;8.468;2023-11-22T06:35:43;13.57;;;8.48;;
22064;SDS011;11197;53.110;8.468;2023-11-22T06:38:09;15.80;;;9.63;;
22064;SDS011;11197;53.110;8.468;2023-11-22T06:40:35;14.43;;;9.13;;
22064;SDS011;11197;53.110;8.468;2023-11-22T06:43:01;13.85;;;8.98;;
22064;SDS011;11197;53.110;8.468;2023-11-22T06:45:29;18.80;;;9.93;;
22064;SDS011;11197;53.110;8.468;2023-11-22T06:47:56;14.55;;;9.23;;
22064;SDS011;11197;53.110;8.468;2023-11-22T06:50:22;17.10;;;9.90;;
22064;SDS011;11197;53.110;8.468;2023-11-22T06:52:47;13.77;;;8.90;;
22064;SDS011;11197;53.110;8.468;2023-11-22T06:55:15;16.10;;;8.90;;
22064;SDS011;11197;53.110;8.468;2023-11-22T06:57:40;16.33;;;9.38;;
22064;SDS011;11197;53.110;8.468;2023-11-22T07:00:06;16.25;;;9.55;;
22064;SDS011;11197;53.110;8.468;2023-11-22T07:02:34;17.92;;;9.55;;
22064;SDS011;11197;53.110;8.468;2023-11-22T07:05:00;14.95;;;8.82;;
22064;SDS011;11197;53.110;8.468;2023-11-22T07:07:28;17.23;;;9.10;;
22064;SDS011;11197;53.110;8.468;2023-11-22T07:09:54;14.18;;;9.02;;
22064;SDS011;11197;53.110;8.468;2023-11-22T07:12:24;15.65;;;9.52;;
22064;SDS011;11197;53.110;8.468;2023-11-22T07:14:50;15.75;;;10.20;;
22064;SDS011;11197;53.110;8.468;2023-11-22T07:17:16;14.77;;;9.13;;
22064;SDS011;11197;53.110;8.468;2023-11-22T07:19:43;16.70;;;9.32;;
22064;SDS011;11197;53.110;8.468;2023-11-22T07:22:14;14.40;;;9.07;;
22064;SDS011;11197;53.110;8.468;2023-11-22T07:24:44;14.73;;;9.23;;
22064;SDS011;11197;53.110;8.468;2023-11-22T07:27:11;15.05;;;9.25;;
22064;SDS011;11197;53.110;8.468;2023-11-22T07:29:38;16.08;;;9.45;;
22064;SDS011;11197;53.110;8.468;2023-11-22T07:32:05;13.43;;;8.77;;
22064;SDS011;11197;53.110;8.468;2023-11-22T07:34:33;14.77;;;8.93;;
22064;SDS011;11197;53.110;8.468;2023-11-22T07:36:59;14.35;;;9.10;;
22064;SDS011;11197;53.110;8.468;2023-11-22T07:39:25;14.13;;;9.18;;
22064;SDS011;11197;53.110;8.468;2023-11-22T07:41:55;14.00;;;8.68;;
22064;SDS011;11197;53.110;8.468;2023-11-22T07:44:21;14.45;;;8.68;;
22064;SDS011;11197;53.110;8.468;2023-11-22T07:46:49;15.20;;;9.45;;
22064;SDS011;11197;53.110;8.468;2023-11-22T07:49:16;13.88;;;8.65;;
22064;SDS011;11197;53.110;8.468;2023-11-22T07:51:43;16.05;;;8.68;;
22064;SDS011;11197;53.110;8.468;2023-11-22T07:54:10;14.45;;;9.02;;
22064;SDS011;11197;53.110;8.468;2023-11-22T07:56:43;13.65;;;8.60;;
22064;SDS011;11197;53.110;8.468;2023-11-22T07:59:12;15.32;;;9.23;;
22064;SDS011;11197;53.110;8.468;2023-11-22T08:01:38;13.50;;;8.68;;
22064;SDS011;11197;53.110;8.468;2023-11-22T08:04:04;15.13;;;9.13;;
22064;SDS011;11197;53.110;8.468;2023-11-22T08:06:33;13.52;;;8.75;;
22064;SDS011;11197;53.110;8.468;2023-11-22T08:09:00;15.63;;;9.32;;
22064;SDS011;11197;53.110;8.468;2023-11-22T08:11:30;14.93;;;9.10;;
22064;SDS011;11197;53.110;8.468;2023-11-22T08:13:56;15.10;;;9.00;;
22064;SDS011;11197;53.110;8.468;2023-11-22T08:16:24;12.60;;;8.27;;
22064;SDS011;11197;53.110;8.468;2023-11-22T08:18:50;15.43;;;9.32;;
22064;SDS011;11197;53.110;8.468;2023-11-22T08:21:16;16.48;;;9.23;;
22064;SDS011;11197;53.110;8.468;2023-11-22T08:23:45;11.93;;;8.07;;
22064;SDS011;11197;53.110;8.468;2023-11-22T08:26:29;14.48;;;9.13;;
22064;SDS011;11197;53.110;8.468;2023-11-22T08:28:56;13.85;;;9.18;;
22064;SDS011;11197;53.110;8.468;2023-11-22T08:31:21;14.77;;;8.98;;
22064;SDS011;11197;53.110;8.468;2023-11-22T08:33:47;16.23;;;9.15;;
22064;SDS011;11197;53.110;8.468;2023-11-22T08:36:13;16.17;;;9.18;;
22064;SDS011;11197;53.110;8.468;2023-11-22T08:38:38;15.27;;;8.68;;
22064;SDS011;11197;53.110;8.468;2023-11-22T08:41:08;17.00;;;10.15;;
22064;SDS011;11197;53.110;8.468;2023-11-22T08:43:38;16.97;;;9.80;;
22064;SDS011;11197;53.110;8.468;2023-11-22T08:46:04;19.15;;;9.75;;
22064;SDS011;11197;53.110;8.468;2023-11-22T08:48:32;16.67;;;10.05;;
22064;SDS011;11197;53.110;8.468;2023-11-22T08:50:58;15.07;;;10.15;;
22064;SDS011;11197;53.110;8.468;2023-11-22T08:53:24;14.98;;;9.00;;
22064;SDS011;11197;53.110;8.468;2023-11-22T08:55:49;16.98;;;9.63;;
22064;SDS011;11197;53.110;8.468;2023-11-22T08:58:15;15.90;;;9.35;;
22064;SDS011;11197;53.110;8.468;2023-11-22T09:00:41;15.18;;;9.55;;
22064;SDS011;11197;53.110;8.468;2023-11-22T09:03:07;15.82;;;9.43;;
22064;SDS011;11197;53.110;8.468;2023-11-22T09:05:36;15.70;;;8.68;;
22064;SDS011;11197;53.110;8.468;2023-11-22T09:08:01;15.55;;;9.13;;
22064;SDS011;11197;53.110;8.468;2023-11-22T09:10:27;14.55;;;8.82;;
22064;SDS011;11197;53.110;8.468;2023-11-22T09:12:53;13.50;;;8.00;;
22064;SDS011;11197;53.110;8.468;2023-11-22T09:15:18;15.25;;;8.63;;
22064;SDS011;11197;53.110;8.468;2023-11-22T09:17:51;12.93;;;8.35;;
22064;SDS011;11197;53.110;8.468;2023-11-22T09:20:19;14.38;;;8.57;;
22064;SDS011;11197;53.110;8.468;2023-11-22T09:22:45;13.80;;;7.75;;
22064;SDS011;11197;53.110;8.468;2023-11-22T09:25:15;12.93;;;8.45;;
22064;SDS011;11197;53.110;8.468;2023-11-22T09:27:44;16.63;;;8.73;;
22064;SDS011;11197;53.110;8.468;2023-11-22T09:30:12;13.30;;;7.20;;
22064;SDS011;11197;53.110;8.468;2023-11-22T09:32:45;13.60;;;8.43;;
22064;SDS011;11197;53.110;8.468;2023-11-22T09:35:12;16.83;;;9.20;;
22064;SDS011;11197;53.110;8.468;2023-11-22T09:37:39;16.95;;;9.63;;
22064;SDS011;11197;53.110;8.468;2023-11-22T09:40:09;17.50;;;9.25;;
22064;SDS011;11197;53.110;8.468;2023-11-22T09:42:37;16.75;;;9.30;;
22064;SDS011;11197;53.110;8.468;2023-11-22T09:45:03;16.35;;;8.95;;
22064;SDS011;11197;53.110;8.468;2023-11-22T09:47:30;15.93;;;8.55;;
22064;SDS011;11197;53.110;8.468;2023-11-22T09:50:00;15.67;;;8.47;;
22064;SDS011;11197;53.110;8.468;2023-11-22T09:52:32;12.02;;;7.38;;
22064;SDS011;11197;53.110;8.468;2023-11-22T09:55:02;12.73;;;7.05;;
22064;SDS011;11197;53.110;8.468;2023-11-22T09:57:28;13.55;;;7.78;;
22064;SDS011;11197;53.110;8.468;2023-11-22T09:59:58;11.57;;;7.25;;
22064;SDS011;11197;53.110;8.468;2023-11-22T10:02:26;12.25;;;6.88;;
22064;SDS011;11197;53.110;8.468;2023-11-22T10:04:53;11.85;;;7.47;;
22064;SDS011;11197;53.110;8.468;2023-11-22T10:07:20;12.38;;;6.65;;
22064;SDS011;11197;53.110;8.468;2023-11-22T10:09:47;10.18;;;6.82;;
22064;SDS011;11197;53.110;8.468;2023-11-22T10:12:14;10.00;;;6.63;;
22064;SDS011;11197;53.110;8.468;2023-11-22T10:14:46;11.35;;;6.50;;
22064;SDS011;11197;53.110;8.468;2023-11-22T10:17:12;13.23;;;6.65;;
22064;SDS011;11197;53.110;8.468;2023-11-22T10:19:41;12.18;;;6.38;;
22064;SDS011;11197;53.110;8.468;2023-11-22T10:22:08;9.20;;;6.18;;
22064;SDS011;11197;53.110;8.468;2023-11-22T10:24:34;10.13;;;6.32;;
22064;SDS011;11197;53.110;8.468;2023-11-22T10:27:01;10.98;;;6.70;;
22064;SDS011;11197;53.110;8.468;2023-11-22T10:29:28;11.25;;;6.22;;
22064;SDS011;11197;53.110;8.468;2023-11-22T10:31:54;9.68;;;6.13;;
22064;SDS011;11197;53.110;8.468;2023-11-22T10:34:23;12.82;;;6.55;;
22064;SDS011;11197;53.110;8.468;2023-11-22T10:36:50;6.25;;;4.28;;
22064;SDS011;11197;53.110;8.468;2023-11-22T10:39:22;11.63;;;5.85;;
22064;SDS011;11197;53.110;8.468;2023-11-22T10:41:48;8.98;;;5.47;;
22064;SDS011;11197;53.110;8.468;2023-11-22T10:44:16;8.70;;;5.45;;
22064;SDS011;11197;53.110;8.468;2023-11-22T10:46:47;8.27;;;5.00;;
22064;SDS011;11197;53.110;8.468;2023-11-22T10:49:14;7.30;;;4.68;;
22064;SDS011;11197;53.110;8.468;2023-11-22T10:51:40;8.25;;;5.38;;
22064;SDS011;11197;53.110;8.468;2023-11-22T10:54:07;8.48;;;4.65;;
22064;SDS011;11197;53.110;8.468;2023-11-22T10:56:40;7.47;;;4.80;;
22064;SDS011;11197;53.110;8.468;2023-11-22T10:59:11;8.13;;;4.90;;
22064;SDS011;11197;53.110;8.468;2023-11-22T11:01:40;8.80;;;4.45;;
22064;SDS011;11197;53.110;8.468;2023-11-22T11:04:33;10.05;;;4.60;;
22064;SDS011;11197;53.110;8.468;2023-11-22T11:07:01;10.68;;;4.75;;
22064;SDS011;11197;53.110;8.468;2023-11-22T11:09:28;7.28;;;4.22;;
22064;SDS011;11197;53.110;8.468;2023-11-22T11:11:58;8.18;;;4.22;;
22064;SDS011;11197;53.110;8.468;2023-11-22T11:14:24;6.60;;;4.45;;
22064;SDS011;11197;53.110;8.468;2023-11-22T11:16:52;7.72;;;4.70;;
22064;SDS011;11197;53.110;8.468;2023-11-22T11:19:19;7.30;;;4.70;;
22064;SDS011;11197;53.110;8.468;2023-11-22T11:21:49;8.50;;;4.38;;
22064;SDS011;11197;53.110;8.468;2023-11-22T11:24:15;6.72;;;4.38;;
22064;SDS011;11197;53.110;8.468;2023-11-22T11:26:41;6.85;;;4.43;;
22064;SDS011;11197;53.110;8.468;2023-11-22T11:29:38;7.30;;;3.97;;
22064;SDS011;11197;53.110;8.468;2023-11-22T11:32:50;6.63;;;4.05;;
22064;SDS011;11197;53.110;8.468;2023-11-22T11:35:04;7.47;;;3.47;;
22064;SDS011;11197;53.110;8.468;2023-11-22T11:37:33;6.57;;;2.95;;
22064;SDS011;11197;53.110;8.468;2023-11-22T11:39:59;4.63;;;2.88;;
22064;SDS011;11197;53.110;8.468;2023-11-22T11:42:24;5.28;;;2.55;;
22064;SDS011;11197;53.110;8.468;2023-11-22T11:44:51;4.50;;;2.58;;
22064;SDS011;11197;53.110;8.468;2023-11-22T11:47:31;3.65;;;2.20;;
22064;SDS011;11197;53.110;8.468;2023-11-22T11:49:57;4.80;;;2.42;;
22064;SDS011;11197;53.110;8.468;2023-11-22T11:52:27;6.07;;;2.70;;
22064;SDS011;11197;53.110;8.468;2023-11-22T11:54:52;3.92;;;2.20;;
22064;SDS011;11197;53.110;8.468;2023-11-22T11:57:18;3.78;;;2.45;;
22064;SDS011;11197;53.110;8.468;2023-11-22T11:59:44;4.60;;;2.90;;
22064;SDS011;11197;53.110;8.468;2023-11-22T12:02:11;4.53;;;2.50;;
22064;SDS011;11197;53.110;8.468;2023-11-22T12:04:37;5.00;;;2.90;;
22064;SDS011;11197;53.110;8.468;2023-11-22T12:07:03;4.70;;;3.10;;
22064;SDS011;11197;53.110;8.468;2023-11-22T12:09:32;5.37;;;2.87;;
22064;SDS011;11197;53.110;8.468;2023-11-22T12:12:00;5.38;;;2.65;;
22064;SDS011;11197;53.110;8.468;2023-11-22T12:14:29;4.70;;;2.65;;
22064;SDS011;11197;53.110;8.468;2023-11-22T12:16:55;5.82;;;2.90;;
22064;SDS011;11197;53.110;8.468;2023-11-22T12:19:23;4.35;;;2.50;;
22064;SDS011;11197;53.110;8.468;2023-11-22T12:21:52;6.05;;;2.80;;
22064;SDS011;11197;53.110;8.468;2023-11-22T12:24:18;4.70;;;2.80;;
22064;SDS011;11197;53.110;8.468;2023-11-22T12:26:47;4.45;;;2.70;;
22064;SDS011;11197;53.110;8.468;2023-11-22T12:29:16;4.78;;;2.70;;
22064;SDS011;11197;53.110;8.468;2023-11-22T12:31:48;5.07;;;2.78;;
22064;SDS011;11197;53.110;8.468;2023-11-22T12:34:17;4.45;;;2.67;;
22064;SDS011;11197;53.110;8.468;2023-11-22T12:36:45;4.50;;;2.75;;
22064;SDS011;11197;53.110;8.468;2023-11-22T12:39:14;4.22;;;2.70;;
22064;SDS011;11197;53.110;8.468;2023-11-22T12:41:44;4.47;;;2.60;;
22064;SDS011;11197;53.110;8.468;2023-11-22T12:44:11;4.75;;;2.40;;
22064;SDS011;11197;53.110;8.468;2023-11-22T12:46:47;4.13;;;2.40;;
22064;SDS011;11197;53.110;8.468;2023-11-22T12:49:26;6.57;;;2.60;;
22064;SDS011;11197;53.110;8.468;2023-11-22T12:51:53;3.42;;;2.28;;
22064;SDS011;11197;53.110;8.468;2023-11-22T12:54:20;7.78;;;2.35;;
22064;SDS011;11197;53.110;8.468;2023-11-22T12:56:49;4.43;;;2.25;;
22064;SDS011;11197;53.110;8.468;2023-11-22T12:59:16;4.88;;;2.90;;
22064;SDS011;11197;53.110;8.468;2023-11-22T13:01:43;3.85;;;2.55;;
22064;SDS011;11197;53.110;8.468;2023-11-22T13:04:10;4.22;;;2.40;;
22064;SDS011;11197;53.110;8.468;2023-11-22T13:06:36;4.85;;;2.35;;
22064;SDS011;11197;53.110;8.468;2023-11-22T13:09:02;3.78;;;2.13;;
22064;SDS011;11197;53.110;8.468;2023-11-22T13:11:28;3.45;;;2.08;;
22064;SDS011;11197;53.110;8.468;2023-11-22T13:13:54;4.40;;;2.35;;
22064;SDS011;11197;53.110;8.468;2023-11-22T13:16:19;3.63;;;2.20;;
22064;SDS011;11197;53.110;8.468;2023-11-22T13:18:45;4.07;;;2.20;;
22064;SDS011;11197;53.110;8.468;2023-11-22T13:21:13;3.63;;;2.40;;
22064;SDS011;11197;53.110;8.468;2023-11-22T13:23:38;4.20;;;2.45;;
22064;SDS011;11197;53.110;8.468;2023-11-22T13:26:04;4.10;;;2.50;;
22064;SDS011;11197;53.110;8.468;2023-11-22T13:28:30;5.53;;;2.63;;
22064;SDS011;11197;53.110;8.468;2023-11-22T13:30:56;5.35;;;2.53;;
22064;SDS011;11197;53.110;8.468;2023-11-22T13:33:22;4.03;;;2.45;;
22064;SDS011;11197;53.110;8.468;2023-11-22T13:35:47;4.03;;;2.65;;
22064;SDS011;11197;53.110;8.468;2023-11-22T13:38:13;4.78;;;2.60;;
22064;SDS011;11197;53.110;8.468;2023-11-22T13:40:41;4.25;;;2.50;;
22064;SDS011;11197;53.110;8.468;2023-11-22T13:43:10;3.80;;;2.30;;
22064;SDS011;11197;53.110;8.468;2023-11-22T13:45:37;4.40;;;2.53;;
22064;SDS011;11197;53.110;8.468;2023-11-22T13:48:06;4.60;;;2.70;;
22064;SDS011;11197;53.110;8.468;2023-11-22T13:50:34;4.55;;;2.47;;
22064;SDS011;11197;53.110;8.468;2023-11-22T13:53:00;4.30;;;2.60;;
22064;SDS011;11197;53.110;8.468;2023-11-22T13:55:26;3.95;;;2.30;;
22064;SDS011;11197;53.110;8.468;2023-11-22T13:57:53;4.20;;;2.50;;
22064;SDS011;11197;53.110;8.468;2023-11-22T14:00:22;8.27;;;2.70;;
22064;SDS011;11197;53.110;8.468;2023-11-22T14:05:20;5.78;;;2.50;;
22064;SDS011;11197;53.110;8.468;2023-11-22T14:07:49;3.63;;;2.35;;
22064;SDS011;11197;53.110;8.468;2023-11-22T14:10:16;4.38;;;2.83;;
22064;SDS011;11197;53.110;8.468;2023-11-22T14:12:43;6.80;;;3.10;;
22064;SDS011;11197;53.110;8.468;2023-11-22T14:15:09;5.63;;;2.85;;
22064;SDS011;11197;53.110;8.468;2023-11-22T14:17:36;4.90;;;2.55;;
22064;SDS011;11197;53.110;8.468;2023-11-22T14:20:04;4.72;;;3.03;;
22064;SDS011;11197;53.110;8.468;2023-11-22T14:22:32;4.40;;;2.50;;
22064;SDS011;11197;53.110;8.468;2023-11-22T14:24:57;6.47;;;2.67;;
22064;SDS011;11197;53.110;8.468;2023-11-22T14:27:23;4.40;;;2.90;;
22064;SDS011;11197;53.110;8.468;2023-11-22T14:29:49;7.35;;;3.33;;
22064;SDS011;11197;53.110;8.468;2023-11-22T14:32:15;4.40;;;2.90;;
22064;SDS011;11197;53.110;8.468;2023-11-22T14:34:42;4.50;;;3.03;;
22064;SDS011;11197;53.110;8.468;2023-11-22T14:37:11;4.60;;;2.95;;
22064;SDS011;11197;53.110;8.468;2023-11-22T14:39:37;5.00;;;3.25;;
22064;SDS011;11197;53.110;8.468;2023-11-22T14:42:03;5.80;;;3.10;;